sensor_id;sensor_type;location;lat;lon;timestamp;temperature;humidity
5980;DHT22;3016;50.308;8.258;2023-06-14T00:02:33;13.10;1.00
5980;DHT22;3016;50.308;8.258;2023-06-14T00:05:33;13.10;1.00
5980;DHT22;3016;50.308;8.258;2023-06-14T00:08:39;13.10;1.00
5980;DHT22;3016;50.308;8.258;2023-06-14T00:11:41;12.90;1.00
5980;DHT22;3016;50.308;8.258;2023-06-14T00:14:42;12.80;1.00
5980;DHT22;3016;50.308;8.258;2023-06-14T00:17:42;12.80;1.00
5980;DHT22;3016;50.308;8.258;2023-06-14T00:20:47;12.80;1.00
5980;DHT22;3016;50.308;8.258;2023-06-14T00:23:48;12.80;1.00
5980;DHT22;3016;50.308;8.258;2023-06-14T00:26:49;12.80;1.00
5980;DHT22;3016;50.308;8.258;2023-06-14T00:29:50;12.80;1.00
5980;DHT22;3016;50.308;8.258;2023-06-14T00:32:51;12.90;1.00
5980;DHT22;3016;50.308;8.258;2023-06-14T00:35:51;12.90;1.00
5980;DHT22;3016;50.308;8.258;2023-06-14T00:38:54;12.90;1.00
5980;DHT22;3016;50.308;8.258;2023-06-14T00:41:54;12.90;1.00
5980;DHT22;3016;50.308;8.258;2023-06-14T00:44:55;12.90;1.00
5980;DHT22;3016;50.308;8.258;2023-06-14T00:47:56;12.80;1.00
5980;DHT22;3016;50.308;8.258;2023-06-14T00:50:57;12.80;1.00
5980;DHT22;3016;50.308;8.258;2023-06-14T00:53:58;12.80;1.00
5980;DHT22;3016;50.308;8.258;2023-06-14T00:56:59;12.80;1.00
5980;DHT22;3016;50.308;8.258;2023-06-14T00:59:59;12.80;1.00
5980;DHT22;3016;50.308;8.258;2023-06-14T01:03:01;12.70;1.00
5980;DHT22;3016;50.308;8.258;2023-06-14T01:06:34;12.70;1.00
5980;DHT22;3016;50.308;8.258;2023-06-14T01:10:09;12.60;1.00
5980;DHT22;3016;50.308;8.258;2023-06-14T01:13:37;12.50;1.00
5980;DHT22;3016;50.308;8.258;2023-06-14T01:16:39;12.40;1.00
5980;DHT22;3016;50.308;8.258;2023-06-14T01:19:44;12.20;1.00
5980;DHT22;3016;50.308;8.258;2023-06-14T01:22:51;12.20;1.00
5980;DHT22;3016;50.308;8.258;2023-06-14T01:25:52;12.20;1.00
5980;DHT22;3016;50.308;8.258;2023-06-14T01:28:53;12.10;1.00
5980;DHT22;3016;50.308;8.258;2023-06-14T01:32:02;12.10;1.00
5980;DHT22;3016;50.308;8.258;2023-06-14T01:35:04;12.10;1.00
5980;DHT22;3016;50.308;8.258;2023-06-14T01:38:06;12.00;1.00
5980;DHT22;3016;50.308;8.258;2023-06-14T01:41:08;11.90;1.00
5980;DHT22;3016;50.308;8.258;2023-06-14T01:44:11;12.00;1.00
5980;DHT22;3016;50.308;8.258;2023-06-14T01:47:12;11.90;1.00
5980;DHT22;3016;50.308;8.258;2023-06-14T01:50:14;11.80;1.00
5980;DHT22;3016;50.308;8.258;2023-06-14T01:53:15;11.80;1.00
5980;DHT22;3016;50.308;8.258;2023-06-14T01:56:16;11.70;1.00
5980;DHT22;3016;50.308;8.258;2023-06-14T01:59:16;11.80;1.00
5980;DHT22;3016;50.308;8.258;2023-06-14T02:02:17;11.60;1.00
5980;DHT22;3016;50.308;8.258;2023-06-14T02:05:18;11.50;1.00
5980;DHT22;3016;50.308;8.258;2023-06-14T02:08:19;11.60;1.00
5980;DHT22;3016;50.308;8.258;2023-06-14T02:11:20;11.50;1.00
5980;DHT22;3016;50.308;8.258;2023-06-14T02:14:20;11.60;1.00
5980;DHT22;3016;50.308;8.258;2023-06-14T02:17:21;11.40;1.00
5980;DHT22;3016;50.308;8.258;2023-06-14T02:20:22;11.30;1.00
5980;DHT22;3016;50.308;8.258;2023-06-14T02:23:22;11.30;1.00
5980;DHT22;3016;50.308;8.258;2023-06-14T02:26:23;11.30;1.00
5980;DHT22;3016;50.308;8.258;2023-06-14T02:29:24;11.30;1.00
5980;DHT22;3016;50.308;8.258;2023-06-14T02:32:25;11.20;1.00
5980;DHT22;3016;50.308;8.258;2023-06-14T02:35:27;11.00;1.00
5980;DHT22;3016;50.308;8.258;2023-06-14T02:38:28;11.00;1.00
5980;DHT22;3016;50.308;8.258;2023-06-14T02:41:29;11.00;1.00
5980;DHT22;3016;50.308;8.258;2023-06-14T02:44:29;11.10;1.00
5980;DHT22;3016;50.308;8.258;2023-06-14T02:47:30;11.00;1.00
5980;DHT22;3016;50.308;8.258;2023-06-14T02:50:31;11.00;1.00
5980;DHT22;3016;50.308;8.258;2023-06-14T02:53:32;11.00;1.00
5980;DHT22;3016;50.308;8.258;2023-06-14T02:56:33;10.90;1.00
5980;DHT22;3016;50.308;8.258;2023-06-14T02:59:34;10.90;1.00
5980;DHT22;3016;50.308;8.258;2023-06-14T03:02:35;11.00;1.00
5980;DHT22;3016;50.308;8.258;2023-06-14T03:05:36;10.80;1.00
5980;DHT22;3016;50.308;8.258;2023-06-14T03:08:37;10.80;1.00
5980;DHT22;3016;50.308;8.258;2023-06-14T03:11:41;10.90;1.00
5980;DHT22;3016;50.308;8.258;2023-06-14T03:14:42;10.70;1.00
5980;DHT22;3016;50.308;8.258;2023-06-14T03:17:46;10.70;1.00
5980;DHT22;3016;50.308;8.258;2023-06-14T03:20:49;10.70;1.00
5980;DHT22;3016;50.308;8.258;2023-06-14T03:23:51;10.70;1.00
5980;DHT22;3016;50.308;8.258;2023-06-14T03:26:53;10.80;1.00
5980;DHT22;3016;50.308;8.258;2023-06-14T03:29:54;10.90;1.00
5980;DHT22;3016;50.308;8.258;2023-06-14T03:32:55;10.90;1.00
5980;DHT22;3016;50.308;8.258;2023-06-14T03:35:55;10.90;1.00
5980;DHT22;3016;50.308;8.258;2023-06-14T03:38:56;10.90;1.00
5980;DHT22;3016;50.308;8.258;2023-06-14T03:41:57;10.90;1.00
5980;DHT22;3016;50.308;8.258;2023-06-14T03:44:58;10.90;1.00
5980;DHT22;3016;50.308;8.258;2023-06-14T03:47:58;10.90;1.00
5980;DHT22;3016;50.308;8.258;2023-06-14T03:51:00;10.90;1.00
5980;DHT22;3016;50.308;8.258;2023-06-14T03:54:02;10.90;1.00
5980;DHT22;3016;50.308;8.258;2023-06-14T03:57:03;11.00;1.00
5980;DHT22;3016;50.308;8.258;2023-06-14T04:00:04;11.00;1.00
5980;DHT22;3016;50.308;8.258;2023-06-14T04:03:06;11.00;1.00
5980;DHT22;3016;50.308;8.258;2023-06-14T04:06:07;11.10;1.00
5980;DHT22;3016;50.308;8.258;2023-06-14T04:09:08;11.10;1.00
5980;DHT22;3016;50.308;8.258;2023-06-14T04:12:09;11.20;1.00
5980;DHT22;3016;50.308;8.258;2023-06-14T04:15:11;11.30;1.00
5980;DHT22;3016;50.308;8.258;2023-06-14T04:18:12;11.30;1.00
5980;DHT22;3016;50.308;8.258;2023-06-14T04:21:13;11.40;1.00
5980;DHT22;3016;50.308;8.258;2023-06-14T04:24:14;11.50;1.00
5980;DHT22;3016;50.308;8.258;2023-06-14T04:27:14;11.60;1.00
5980;DHT22;3016;50.308;8.258;2023-06-14T04:30:21;11.50;1.00
5980;DHT22;3016;50.308;8.258;2023-06-14T04:33:27;11.70;1.00
5980;DHT22;3016;50.308;8.258;2023-06-14T04:36:28;11.80;1.00
5980;DHT22;3016;50.308;8.258;2023-06-14T04:39:28;11.80;1.00
5980;DHT22;3016;50.308;8.258;2023-06-14T04:42:29;11.90;1.00
5980;DHT22;3016;50.308;8.258;2023-06-14T04:45:31;12.00;1.00
5980;DHT22;3016;50.308;8.258;2023-06-14T04:48:32;12.20;1.00
5980;DHT22;3016;50.308;8.258;2023-06-14T04:51:33;12.30;1.00
5980;DHT22;3016;50.308;8.258;2023-06-14T04:54:33;12.50;1.00
5980;DHT22;3016;50.308;8.258;2023-06-14T04:57:37;12.70;1.00
5980;DHT22;3016;50.308;8.258;2023-06-14T05:00:38;12.90;1.00
5980;DHT22;3016;50.308;8.258;2023-06-14T05:03:39;13.00;1.00
5980;DHT22;3016;50.308;8.258;2023-06-14T05:06:40;13.20;1.00
5980;DHT22;3016;50.308;8.258;2023-06-14T05:09:41;13.50;1.00
5980;DHT22;3016;50.308;8.258;2023-06-14T05:12:41;13.70;1.00
5980;DHT22;3016;50.308;8.258;2023-06-14T05:15:43;13.90;1.00
5980;DHT22;3016;50.308;8.258;2023-06-14T05:18:45;14.10;1.00
5980;DHT22;3016;50.308;8.258;2023-06-14T05:21:47;14.20;1.00
5980;DHT22;3016;50.308;8.258;2023-06-14T05:24:48;14.40;1.00
5980;DHT22;3016;50.308;8.258;2023-06-14T05:27:49;14.70;1.00
5980;DHT22;3016;50.308;8.258;2023-06-14T05:30:49;14.90;1.00
5980;DHT22;3016;50.308;8.258;2023-06-14T05:33:51;15.00;1.00
5980;DHT22;3016;50.308;8.258;2023-06-14T05:36:52;15.30;1.00
5980;DHT22;3016;50.308;8.258;2023-06-14T05:39:53;15.50;1.00
5980;DHT22;3016;50.308;8.258;2023-06-14T05:42:53;15.60;1.00
5980;DHT22;3016;50.308;8.258;2023-06-14T05:45:54;16.00;1.00
5980;DHT22;3016;50.308;8.258;2023-06-14T05:48:55;16.20;1.00
5980;DHT22;3016;50.308;8.258;2023-06-14T05:51:56;16.40;1.00
5980;DHT22;3016;50.308;8.258;2023-06-14T05:54:57;16.70;1.00
5980;DHT22;3016;50.308;8.258;2023-06-14T05:57:57;16.70;1.00
5980;DHT22;3016;50.308;8.258;2023-06-14T06:00:58;16.90;1.00
5980;DHT22;3016;50.308;8.258;2023-06-14T06:03:59;17.20;1.00
5980;DHT22;3016;50.308;8.258;2023-06-14T06:07:00;17.60;1.00
5980;DHT22;3016;50.308;8.258;2023-06-14T06:10:01;17.80;1.00
5980;DHT22;3016;50.308;8.258;2023-06-14T06:13:01;18.00;1.00
5980;DHT22;3016;50.308;8.258;2023-06-14T06:16:03;18.20;1.00
5980;DHT22;3016;50.308;8.258;2023-06-14T06:19:04;18.30;1.00
5980;DHT22;3016;50.308;8.258;2023-06-14T06:22:07;18.60;1.00
5980;DHT22;3016;50.308;8.258;2023-06-14T06:25:08;19.00;1.00
5980;DHT22;3016;50.308;8.258;2023-06-14T06:28:10;19.20;1.00
5980;DHT22;3016;50.308;8.258;2023-06-14T06:31:11;19.00;1.00
5980;DHT22;3016;50.308;8.258;2023-06-14T06:34:12;19.00;1.00
5980;DHT22;3016;50.308;8.258;2023-06-14T06:37:13;19.10;1.00
5980;DHT22;3016;50.308;8.258;2023-06-14T06:40:14;19.40;1.00
5980;DHT22;3016;50.308;8.258;2023-06-14T06:43:15;19.40;1.00
5980;DHT22;3016;50.308;8.258;2023-06-14T06:46:17;19.50;1.00
5980;DHT22;3016;50.308;8.258;2023-06-14T06:49:19;19.80;1.00
5980;DHT22;3016;50.308;8.258;2023-06-14T06:52:19;20.30;1.00
5980;DHT22;3016;50.308;8.258;2023-06-14T06:55:20;20.40;1.00
5980;DHT22;3016;50.308;8.258;2023-06-14T06:58:21;20.40;1.00
5980;DHT22;3016;50.308;8.258;2023-06-14T07:01:22;20.70;1.00
5980;DHT22;3016;50.308;8.258;2023-06-14T07:04:24;20.50;1.00
5980;DHT22;3016;50.308;8.258;2023-06-14T07:07:25;20.50;1.00
5980;DHT22;3016;50.308;8.258;2023-06-14T07:10:26;20.50;1.00
5980;DHT22;3016;50.308;8.258;2023-06-14T07:13:26;20.90;1.00
5980;DHT22;3016;50.308;8.258;2023-06-14T07:16:27;21.20;1.00
5980;DHT22;3016;50.308;8.258;2023-06-14T07:19:27;21.40;1.00
5980;DHT22;3016;50.308;8.258;2023-06-14T07:22:28;21.20;1.00
5980;DHT22;3016;50.308;8.258;2023-06-14T07:25:29;21.00;1.00
5980;DHT22;3016;50.308;8.258;2023-06-14T07:28:29;21.20;1.00
5980;DHT22;3016;50.308;8.258;2023-06-14T07:31:30;21.10;1.00
5980;DHT22;3016;50.308;8.258;2023-06-14T07:34:31;21.60;1.00
5980;DHT22;3016;50.308;8.258;2023-06-14T07:37:32;21.60;1.00
5980;DHT22;3016;50.308;8.258;2023-06-14T07:40:32;21.80;1.00
5980;DHT22;3016;50.308;8.258;2023-06-14T07:43:33;22.30;1.00
5980;DHT22;3016;50.308;8.258;2023-06-14T07:46:33;22.10;1.00
5980;DHT22;3016;50.308;8.258;2023-06-14T07:49:34;21.90;1.00
5980;DHT22;3016;50.308;8.258;2023-06-14T07:52:35;21.90;1.00
5980;DHT22;3016;50.308;8.258;2023-06-14T07:55:36;22.00;1.00
5980;DHT22;3016;50.308;8.258;2023-06-14T07:58:40;22.10;1.00
5980;DHT22;3016;50.308;8.258;2023-06-14T08:01:41;22.20;1.00
5980;DHT22;3016;50.308;8.258;2023-06-14T08:04:48;22.20;1.00
5980;DHT22;3016;50.308;8.258;2023-06-14T08:07:48;22.50;1.00
5980;DHT22;3016;50.308;8.258;2023-06-14T08:10:49;22.70;1.00
5980;DHT22;3016;50.308;8.258;2023-06-14T08:13:50;22.70;1.00
5980;DHT22;3016;50.308;8.258;2023-06-14T08:16:50;22.60;1.00
5980;DHT22;3016;50.308;8.258;2023-06-14T08:19:51;22.70;1.00
5980;DHT22;3016;50.308;8.258;2023-06-14T08:22:52;23.00;1.00
5980;DHT22;3016;50.308;8.258;2023-06-14T08:25:56;23.20;1.00
5980;DHT22;3016;50.308;8.258;2023-06-14T08:28:57;23.20;1.00
5980;DHT22;3016;50.308;8.258;2023-06-14T08:31:58;23.30;1.00
5980;DHT22;3016;50.308;8.258;2023-06-14T08:34:59;23.40;1.00
5980;DHT22;3016;50.308;8.258;2023-06-14T08:38:00;23.50;1.00
5980;DHT22;3016;50.308;8.258;2023-06-14T08:41:01;23.40;1.00
5980;DHT22;3016;50.308;8.258;2023-06-14T08:44:02;23.00;1.00
5980;DHT22;3016;50.308;8.258;2023-06-14T08:47:06;22.90;1.00
5980;DHT22;3016;50.308;8.258;2023-06-14T08:50:08;22.80;1.00
5980;DHT22;3016;50.308;8.258;2023-06-14T08:53:11;22.90;1.00
5980;DHT22;3016;50.308;8.258;2023-06-14T08:56:19;22.40;1.00
5980;DHT22;3016;50.308;8.258;2023-06-14T08:59:21;22.70;1.00
5980;DHT22;3016;50.308;8.258;2023-06-14T09:02:21;22.50;1.00
5980;DHT22;3016;50.308;8.258;2023-06-14T09:05:26;22.50;1.00
5980;DHT22;3016;50.308;8.258;2023-06-14T09:08:28;22.30;1.00
5980;DHT22;3016;50.308;8.258;2023-06-14T09:11:31;22.80;1.00
5980;DHT22;3016;50.308;8.258;2023-06-14T09:14:33;23.20;1.00
5980;DHT22;3016;50.308;8.258;2023-06-14T09:17:39;23.30;1.00
5980;DHT22;3016;50.308;8.258;2023-06-14T09:20:40;23.40;1.00
5980;DHT22;3016;50.308;8.258;2023-06-14T09:23:43;23.50;1.00
5980;DHT22;3016;50.308;8.258;2023-06-14T09:26:51;23.20;1.00
5980;DHT22;3016;50.308;8.258;2023-06-14T09:29:52;23.00;1.00
5980;DHT22;3016;50.308;8.258;2023-06-14T09:32:53;23.20;1.00
5980;DHT22;3016;50.308;8.258;2023-06-14T09:35:54;23.00;1.00
5980;DHT22;3016;50.308;8.258;2023-06-14T09:38:57;23.30;1.00
5980;DHT22;3016;50.308;8.258;2023-06-14T09:41:58;23.50;1.00
5980;DHT22;3016;50.308;8.258;2023-06-14T09:44:59;23.80;1.00
5980;DHT22;3016;50.308;8.258;2023-06-14T09:48:01;23.80;1.00
5980;DHT22;3016;50.308;8.258;2023-06-14T09:51:01;23.70;1.00
5980;DHT22;3016;50.308;8.258;2023-06-14T09:54:03;23.80;1.00
5980;DHT22;3016;50.308;8.258;2023-06-14T09:57:09;23.90;1.00
5980;DHT22;3016;50.308;8.258;2023-06-14T10:00:13;23.80;1.00
5980;DHT22;3016;50.308;8.258;2023-06-14T10:03:27;23.20;1.00
5980;DHT22;3016;50.308;8.258;2023-06-14T10:06:29;23.30;1.00
5980;DHT22;3016;50.308;8.258;2023-06-14T10:09:30;23.40;1.00
5980;DHT22;3016;50.308;8.258;2023-06-14T10:12:32;23.70;1.00
5980;DHT22;3016;50.308;8.258;2023-06-14T10:15:39;24.00;1.00
5980;DHT22;3016;50.308;8.258;2023-06-14T10:19:07;24.10;1.00
5980;DHT22;3016;50.308;8.258;2023-06-14T10:22:19;23.70;1.00
5980;DHT22;3016;50.308;8.258;2023-06-14T10:25:29;23.70;1.00
5980;DHT22;3016;50.308;8.258;2023-06-14T10:28:30;23.70;1.00
5980;DHT22;3016;50.308;8.258;2023-06-14T10:31:49;23.90;1.00
5980;DHT22;3016;50.308;8.258;2023-06-14T10:35:02;23.40;1.00
5980;DHT22;3016;50.308;8.258;2023-06-14T10:38:12;23.00;1.00
5980;DHT22;3016;50.308;8.258;2023-06-14T10:41:13;22.70;1.00
5980;DHT22;3016;50.308;8.258;2023-06-14T10:47:27;22.70;1.00
5980;DHT22;3016;50.308;8.258;2023-06-14T10:50:29;22.90;1.00
5980;DHT22;3016;50.308;8.258;2023-06-14T10:53:40;22.20;1.00
5980;DHT22;3016;50.308;8.258;2023-06-14T10:56:52;22.30;1.00
5980;DHT22;3016;50.308;8.258;2023-06-14T10:59:53;22.50;1.00
5980;DHT22;3016;50.308;8.258;2023-06-14T11:06:49;22.40;1.00
5980;DHT22;3016;50.308;8.258;2023-06-14T11:13:02;22.80;1.00
5980;DHT22;3016;50.308;8.258;2023-06-14T11:16:10;22.90;1.00
5980;DHT22;3016;50.308;8.258;2023-06-14T11:19:12;23.10;1.00
5980;DHT22;3016;50.308;8.258;2023-06-14T11:22:13;23.40;1.00
5980;DHT22;3016;50.308;8.258;2023-06-14T11:25:15;23.40;1.00
5980;DHT22;3016;50.308;8.258;2023-06-14T11:28:16;23.60;1.00
5980;DHT22;3016;50.308;8.258;2023-06-14T11:31:20;23.60;1.00
5980;DHT22;3016;50.308;8.258;2023-06-14T11:34:21;23.70;1.00
5980;DHT22;3016;50.308;8.258;2023-06-14T11:37:21;23.60;1.00
5980;DHT22;3016;50.308;8.258;2023-06-14T11:40:25;23.70;1.00
5980;DHT22;3016;50.308;8.258;2023-06-14T11:43:37;23.60;1.00
5980;DHT22;3016;50.308;8.258;2023-06-14T11:46:44;23.30;1.00
5980;DHT22;3016;50.308;8.258;2023-06-14T11:49:46;23.20;1.00
5980;DHT22;3016;50.308;8.258;2023-06-14T11:52:58;23.10;1.00
5980;DHT22;3016;50.308;8.258;2023-06-14T11:56:07;22.90;1.00
5980;DHT22;3016;50.308;8.258;2023-06-14T11:59:08;22.50;1.00
5980;DHT22;3016;50.308;8.258;2023-06-14T12:02:09;22.50;1.00
5980;DHT22;3016;50.308;8.258;2023-06-14T12:05:10;22.70;1.00
5980;DHT22;3016;50.308;8.258;2023-06-14T12:08:11;22.70;1.00
5980;DHT22;3016;50.308;8.258;2023-06-14T12:11:20;22.80;1.00
5980;DHT22;3016;50.308;8.258;2023-06-14T12:14:20;23.00;1.00
5980;DHT22;3016;50.308;8.258;2023-06-14T12:17:21;23.10;1.00
5980;DHT22;3016;50.308;8.258;2023-06-14T12:20:22;23.00;1.00
5980;DHT22;3016;50.308;8.258;2023-06-14T12:23:23;22.80;1.00
5980;DHT22;3016;50.308;8.258;2023-06-14T12:26:24;22.80;1.00
5980;DHT22;3016;50.308;8.258;2023-06-14T12:29:27;22.90;1.00
5980;DHT22;3016;50.308;8.258;2023-06-14T12:32:28;22.80;1.00
5980;DHT22;3016;50.308;8.258;2023-06-14T12:35:30;22.80;1.00
5980;DHT22;3016;50.308;8.258;2023-06-14T12:38:30;22.80;1.00
5980;DHT22;3016;50.308;8.258;2023-06-14T12:41:31;22.90;1.00
5980;DHT22;3016;50.308;8.258;2023-06-14T12:44:33;23.20;1.00
5980;DHT22;3016;50.308;8.258;2023-06-14T12:47:36;23.30;1.00
5980;DHT22;3016;50.308;8.258;2023-06-14T12:50:36;23.40;1.00
5980;DHT22;3016;50.308;8.258;2023-06-14T12:53:37;23.40;1.00
5980;DHT22;3016;50.308;8.258;2023-06-14T12:56:38;23.20;1.00
5980;DHT22;3016;50.308;8.258;2023-06-14T12:59:38;22.90;1.00
5980;DHT22;3016;50.308;8.258;2023-06-14T13:02:39;23.00;1.00
5980;DHT22;3016;50.308;8.258;2023-06-14T13:05:40;23.30;1.00
5980;DHT22;3016;50.308;8.258;2023-06-14T13:08:41;23.60;1.00
5980;DHT22;3016;50.308;8.258;2023-06-14T13:11:42;23.70;1.00
5980;DHT22;3016;50.308;8.258;2023-06-14T13:14:46;23.70;1.00
5980;DHT22;3016;50.308;8.258;2023-06-14T13:17:46;23.40;1.00
5980;DHT22;3016;50.308;8.258;2023-06-14T13:20:48;23.10;1.00
5980;DHT22;3016;50.308;8.258;2023-06-14T13:23:49;23.10;1.00
5980;DHT22;3016;50.308;8.258;2023-06-14T13:26:50;23.10;1.00
5980;DHT22;3016;50.308;8.258;2023-06-14T13:29:51;22.90;1.00
5980;DHT22;3016;50.308;8.258;2023-06-14T13:32:52;23.00;1.00
5980;DHT22;3016;50.308;8.258;2023-06-14T13:35:52;23.30;1.00
5980;DHT22;3016;50.308;8.258;2023-06-14T13:38:53;23.40;1.00
5980;DHT22;3016;50.308;8.258;2023-06-14T13:41:55;23.40;1.00
5980;DHT22;3016;50.308;8.258;2023-06-14T13:44:55;23.30;1.00
5980;DHT22;3016;50.308;8.258;2023-06-14T13:47:56;23.10;1.00
5980;DHT22;3016;50.308;8.258;2023-06-14T13:50:59;23.10;1.00
5980;DHT22;3016;50.308;8.258;2023-06-14T13:54:00;23.20;1.00
5980;DHT22;3016;50.308;8.258;2023-06-14T13:57:01;23.10;1.00
5980;DHT22;3016;50.308;8.258;2023-06-14T14:00:02;23.10;1.00
5980;DHT22;3016;50.308;8.258;2023-06-14T14:03:03;23.20;1.00
5980;DHT22;3016;50.308;8.258;2023-06-14T14:06:04;23.30;1.00
5980;DHT22;3016;50.308;8.258;2023-06-14T14:09:07;23.30;1.00
5980;DHT22;3016;50.308;8.258;2023-06-14T14:12:08;23.30;1.00
5980;DHT22;3016;50.308;8.258;2023-06-14T14:15:09;23.60;1.00
5980;DHT22;3016;50.308;8.258;2023-06-14T14:18:13;23.70;1.00
5980;DHT22;3016;50.308;8.258;2023-06-14T14:21:14;24.00;1.00
5980;DHT22;3016;50.308;8.258;2023-06-14T14:24:15;24.00;1.00
5980;DHT22;3016;50.308;8.258;2023-06-14T14:27:16;24.00;1.00
5980;DHT22;3016;50.308;8.258;2023-06-14T14:30:18;24.00;1.00
5980;DHT22;3016;50.308;8.258;2023-06-14T14:33:20;24.10;1.00
5980;DHT22;3016;50.308;8.258;2023-06-14T14:36:21;24.00;1.00
5980;DHT22;3016;50.308;8.258;2023-06-14T14:39:22;23.60;1.00
5980;DHT22;3016;50.308;8.258;2023-06-14T14:42:23;23.30;1.00
5980;DHT22;3016;50.308;8.258;2023-06-14T14:45:23;23.20;1.00
5980;DHT22;3016;50.308;8.258;2023-06-14T14:48:24;23.40;1.00
5980;DHT22;3016;50.308;8.258;2023-06-14T14:51:25;23.70;1.00
5980;DHT22;3016;50.308;8.258;2023-06-14T14:54:26;24.10;1.00
5980;DHT22;3016;50.308;8.258;2023-06-14T14:57:27;23.90;1.00
5980;DHT22;3016;50.308;8.258;2023-06-14T15:00:27;23.60;1.00
5980;DHT22;3016;50.308;8.258;2023-06-14T15:03:28;23.40;1.00
5980;DHT22;3016;50.308;8.258;2023-06-14T15:06:29;23.60;1.00
5980;DHT22;3016;50.308;8.258;2023-06-14T15:09:29;23.50;1.00
5980;DHT22;3016;50.308;8.258;2023-06-14T15:12:30;23.20;1.00
5980;DHT22;3016;50.308;8.258;2023-06-14T15:15:31;23.30;1.00
5980;DHT22;3016;50.308;8.258;2023-06-14T15:18:31;23.20;1.00
5980;DHT22;3016;50.308;8.258;2023-06-14T15:21:32;23.20;1.00
5980;DHT22;3016;50.308;8.258;2023-06-14T15:24:32;23.30;1.00
5980;DHT22;3016;50.308;8.258;2023-06-14T15:27:33;23.10;1.00
5980;DHT22;3016;50.308;8.258;2023-06-14T15:30:34;23.20;1.00
5980;DHT22;3016;50.308;8.258;2023-06-14T15:33:35;23.50;1.00
5980;DHT22;3016;50.308;8.258;2023-06-14T15:36:35;23.70;1.00
5980;DHT22;3016;50.308;8.258;2023-06-14T15:39:36;23.70;1.00
5980;DHT22;3016;50.308;8.258;2023-06-14T15:42:37;23.60;1.00
5980;DHT22;3016;50.308;8.258;2023-06-14T15:45:37;23.50;1.00
5980;DHT22;3016;50.308;8.258;2023-06-14T15:48:40;23.40;1.00
5980;DHT22;3016;50.308;8.258;2023-06-14T15:51:40;23.20;1.00
5980;DHT22;3016;50.308;8.258;2023-06-14T15:54:41;23.20;1.00
5980;DHT22;3016;50.308;8.258;2023-06-14T15:57:42;23.10;1.00
5980;DHT22;3016;50.308;8.258;2023-06-14T16:00:42;22.80;1.00
5980;DHT22;3016;50.308;8.258;2023-06-14T16:03:43;22.70;1.00
5980;DHT22;3016;50.308;8.258;2023-06-14T16:06:44;22.70;1.00
5980;DHT22;3016;50.308;8.258;2023-06-14T16:09:44;22.90;1.00
5980;DHT22;3016;50.308;8.258;2023-06-14T16:12:45;23.20;1.00
5980;DHT22;3016;50.308;8.258;2023-06-14T16:15:46;23.50;1.00
5980;DHT22;3016;50.308;8.258;2023-06-14T16:18:47;23.70;1.00
5980;DHT22;3016;50.308;8.258;2023-06-14T16:21:47;23.90;1.00
5980;DHT22;3016;50.308;8.258;2023-06-14T16:24:48;24.10;1.00
5980;DHT22;3016;50.308;8.258;2023-06-14T16:27:49;24.20;1.00
5980;DHT22;3016;50.308;8.258;2023-06-14T16:30:50;24.00;1.00
5980;DHT22;3016;50.308;8.258;2023-06-14T16:33:51;23.80;1.00
5980;DHT22;3016;50.308;8.258;2023-06-14T16:36:54;23.60;1.00
5980;DHT22;3016;50.308;8.258;2023-06-14T16:39:55;23.30;1.00
5980;DHT22;3016;50.308;8.258;2023-06-14T16:42:56;23.10;1.00
5980;DHT22;3016;50.308;8.258;2023-06-14T16:45:56;23.20;1.00
5980;DHT22;3016;50.308;8.258;2023-06-14T16:48:58;23.20;1.00
5980;DHT22;3016;50.308;8.258;2023-06-14T16:51:59;23.00;1.00
5980;DHT22;3016;50.308;8.258;2023-06-14T16:54:59;23.00;1.00
5980;DHT22;3016;50.308;8.258;2023-06-14T16:58:00;23.20;1.00
5980;DHT22;3016;50.308;8.258;2023-06-14T17:01:01;23.30;1.00
5980;DHT22;3016;50.308;8.258;2023-06-14T17:04:02;23.40;1.00
5980;DHT22;3016;50.308;8.258;2023-06-14T17:07:03;23.40;1.00
5980;DHT22;3016;50.308;8.258;2023-06-14T17:10:05;23.50;1.00
5980;DHT22;3016;50.308;8.258;2023-06-14T17:13:06;23.70;1.00
5980;DHT22;3016;50.308;8.258;2023-06-14T17:16:06;23.90;1.00
5980;DHT22;3016;50.308;8.258;2023-06-14T17:19:07;23.90;1.00
5980;DHT22;3016;50.308;8.258;2023-06-14T17:22:08;23.70;1.00
5980;DHT22;3016;50.308;8.258;2023-06-14T17:25:09;23.50;1.00
5980;DHT22;3016;50.308;8.258;2023-06-14T17:28:10;23.30;1.00
5980;DHT22;3016;50.308;8.258;2023-06-14T17:31:10;23.30;1.00
5980;DHT22;3016;50.308;8.258;2023-06-14T17:34:11;23.40;1.00
5980;DHT22;3016;50.308;8.258;2023-06-14T17:37:12;23.40;1.00
5980;DHT22;3016;50.308;8.258;2023-06-14T17:40:13;23.30;1.00
5980;DHT22;3016;50.308;8.258;2023-06-14T17:43:13;23.40;1.00
5980;DHT22;3016;50.308;8.258;2023-06-14T17:46:14;23.40;1.00
5980;DHT22;3016;50.308;8.258;2023-06-14T17:49:15;23.30;1.00
5980;DHT22;3016;50.308;8.258;2023-06-14T17:52:16;23.20;1.00
5980;DHT22;3016;50.308;8.258;2023-06-14T17:55:17;23.00;1.00
5980;DHT22;3016;50.308;8.258;2023-06-14T17:58:18;23.10;1.00
5980;DHT22;3016;50.308;8.258;2023-06-14T18:01:18;23.20;1.00
5980;DHT22;3016;50.308;8.258;2023-06-14T18:04:21;23.20;1.00
5980;DHT22;3016;50.308;8.258;2023-06-14T18:07:21;23.00;1.00
5980;DHT22;3016;50.308;8.258;2023-06-14T18:10:22;23.00;1.00
5980;DHT22;3016;50.308;8.258;2023-06-14T18:13:23;22.90;1.00
5980;DHT22;3016;50.308;8.258;2023-06-14T18:16:23;22.80;1.00
5980;DHT22;3016;50.308;8.258;2023-06-14T18:19:24;22.80;1.00
5980;DHT22;3016;50.308;8.258;2023-06-14T18:22:28;22.70;1.00
5980;DHT22;3016;50.308;8.258;2023-06-14T18:25:29;22.60;1.00
5980;DHT22;3016;50.308;8.258;2023-06-14T18:28:30;22.50;1.00
5980;DHT22;3016;50.308;8.258;2023-06-14T18:31:31;22.40;1.00
5980;DHT22;3016;50.308;8.258;2023-06-14T18:34:31;22.30;1.00
5980;DHT22;3016;50.308;8.258;2023-06-14T18:37:33;22.10;1.00
5980;DHT22;3016;50.308;8.258;2023-06-14T18:40:34;22.00;1.00
5980;DHT22;3016;50.308;8.258;2023-06-14T18:43:36;21.90;1.00
5980;DHT22;3016;50.308;8.258;2023-06-14T18:46:37;21.80;1.00
5980;DHT22;3016;50.308;8.258;2023-06-14T18:49:38;21.80;1.00
5980;DHT22;3016;50.308;8.258;2023-06-14T18:52:39;21.60;1.00
5980;DHT22;3016;50.308;8.258;2023-06-14T18:55:40;21.50;1.00
5980;DHT22;3016;50.308;8.258;2023-06-14T18:58:43;21.40;1.00
5980;DHT22;3016;50.308;8.258;2023-06-14T19:01:44;21.30;1.00
5980;DHT22;3016;50.308;8.258;2023-06-14T19:04:44;21.20;1.00
5980;DHT22;3016;50.308;8.258;2023-06-14T19:07:45;21.00;1.00
5980;DHT22;3016;50.308;8.258;2023-06-14T19:10:46;20.80;1.00
5980;DHT22;3016;50.308;8.258;2023-06-14T19:13:46;20.80;1.00
5980;DHT22;3016;50.308;8.258;2023-06-14T19:16:47;20.60;1.00
5980;DHT22;3016;50.308;8.258;2023-06-14T19:19:48;20.50;1.00
5980;DHT22;3016;50.308;8.258;2023-06-14T19:22:49;20.30;1.00
5980;DHT22;3016;50.308;8.258;2023-06-14T19:25:50;20.10;1.00
5980;DHT22;3016;50.308;8.258;2023-06-14T19:28:50;20.00;1.00
5980;DHT22;3016;50.308;8.258;2023-06-14T19:31:51;19.90;1.00
5980;DHT22;3016;50.308;8.258;2023-06-14T19:34:53;19.80;1.00
5980;DHT22;3016;50.308;8.258;2023-06-14T19:37:54;19.70;1.00
5980;DHT22;3016;50.308;8.258;2023-06-14T19:40:55;19.60;1.00
5980;DHT22;3016;50.308;8.258;2023-06-14T19:43:56;19.70;1.00
5980;DHT22;3016;50.308;8.258;2023-06-14T19:46:57;19.70;1.00
5980;DHT22;3016;50.308;8.258;2023-06-14T19:49:57;19.60;1.00
5980;DHT22;3016;50.308;8.258;2023-06-14T19:52:58;19.40;1.00
5980;DHT22;3016;50.308;8.258;2023-06-14T19:55:59;19.30;1.00
5980;DHT22;3016;50.308;8.258;2023-06-14T19:59:00;19.20;1.00
5980;DHT22;3016;50.308;8.258;2023-06-14T20:02:02;19.10;1.00
5980;DHT22;3016;50.308;8.258;2023-06-14T20:05:03;18.90;1.00
5980;DHT22;3016;50.308;8.258;2023-06-14T20:08:04;18.70;1.00
5980;DHT22;3016;50.308;8.258;2023-06-14T20:11:06;18.60;1.00
5980;DHT22;3016;50.308;8.258;2023-06-14T20:14:06;18.50;1.00
5980;DHT22;3016;50.308;8.258;2023-06-14T20:17:07;18.40;1.00